sensor_id;sensor_type;location;lat;lon;timestamp;P1;durP1;ratioP1;P2;durP2;ratioP2
14748;SDS011;7466;53.574;9.976;2022-09-20T00:01:23;11.77;;;3.40;;
14748;SDS011;7466;53.574;9.976;2022-09-20T00:03:52;12.33;;;3.13;;
14748;SDS011;7466;53.574;9.976;2022-09-20T00:06:23;22.67;;;3.83;;
14748;SDS011;7466;53.574;9.976;2022-09-20T00:08:51;20.83;;;4.03;;
14748;SDS011;7466;53.574;9.976;2022-09-20T00:11:21;18.57;;;4.30;;
14748;SDS011;7466;53.574;9.976;2022-09-20T00:13:50;16.90;;;3.07;;
14748;SDS011;7466;53.574;9.976;2022-09-20T00:16:19;12.97;;;3.80;;
14748;SDS011;7466;53.574;9.976;2022-09-20T00:18:48;15.70;;;3.20;;
14748;SDS011;7466;53.574;9.976;2022-09-20T00:21:15;15.60;;;3.80;;
14748;SDS011;7466;53.574;9.976;2022-09-20T00:23:44;17.43;;;3.50;;
14748;SDS011;7466;53.574;9.976;2022-09-20T00:26:11;15.37;;;3.23;;
14748;SDS011;7466;53.574;9.976;2022-09-20T00:28:39;10.87;;;3.57;;
14748;SDS011;7466;53.574;9.976;2022-09-20T00:31:06;13.20;;;3.50;;
14748;SDS011;7466;53.574;9.976;2022-09-20T00:33:33;17.90;;;3.60;;
14748;SDS011;7466;53.574;9.976;2022-09-20T00:36:17;17.60;;;3.50;;
14748;SDS011;7466;53.574;9.976;2022-09-20T00:38:45;14.93;;;3.63;;
14748;SDS011;7466;53.574;9.976;2022-09-20T00:41:12;25.10;;;4.20;;
14748;SDS011;7466;53.574;9.976;2022-09-20T00:43:40;11.97;;;3.23;;
14748;SDS011;7466;53.574;9.976;2022-09-20T00:46:14;17.23;;;3.47;;
14748;SDS011;7466;53.574;9.976;2022-09-20T00:48:47;17.03;;;3.70;;
14748;SDS011;7466;53.574;9.976;2022-09-20T00:51:16;23.30;;;3.87;;
14748;SDS011;7466;53.574;9.976;2022-09-20T00:53:50;17.07;;;3.87;;
14748;SDS011;7466;53.574;9.976;2022-09-20T00:56:20;19.00;;;3.80;;
14748;SDS011;7466;53.574;9.976;2022-09-20T00:58:50;11.77;;;3.33;;
14748;SDS011;7466;53.574;9.976;2022-09-20T01:01:23;15.47;;;3.77;;
14748;SDS011;7466;53.574;9.976;2022-09-20T01:03:50;21.80;;;3.87;;
14748;SDS011;7466;53.574;9.976;2022-09-20T01:06:19;19.53;;;4.00;;
14748;SDS011;7466;53.574;9.976;2022-09-20T01:08:46;17.50;;;4.10;;
14748;SDS011;7466;53.574;9.976;2022-09-20T01:11:17;15.43;;;4.03;;
14748;SDS011;7466;53.574;9.976;2022-09-20T01:13:44;14.63;;;3.60;;
14748;SDS011;7466;53.574;9.976;2022-09-20T01:16:11;29.50;;;4.33;;
14748;SDS011;7466;53.574;9.976;2022-09-20T01:18:41;29.23;;;5.07;;
14748;SDS011;7466;53.574;9.976;2022-09-20T01:21:10;16.60;;;4.13;;
14748;SDS011;7466;53.574;9.976;2022-09-20T01:23:40;19.13;;;4.10;;
14748;SDS011;7466;53.574;9.976;2022-09-20T01:26:25;14.00;;;4.40;;
14748;SDS011;7466;53.574;9.976;2022-09-20T01:29:09;22.70;;;4.67;;
14748;SDS011;7466;53.574;9.976;2022-09-20T01:31:43;22.90;;;4.73;;
14748;SDS011;7466;53.574;9.976;2022-09-20T01:34:16;17.27;;;4.67;;
14748;SDS011;7466;53.574;9.976;2022-09-20T01:36:48;23.90;;;4.73;;
14748;SDS011;7466;53.574;9.976;2022-09-20T01:39:17;19.53;;;5.23;;
14748;SDS011;7466;53.574;9.976;2022-09-20T01:41:52;13.27;;;4.43;;
14748;SDS011;7466;53.574;9.976;2022-09-20T01:44:26;12.73;;;4.97;;
14748;SDS011;7466;53.574;9.976;2022-09-20T01:47:02;15.47;;;4.70;;
14748;SDS011;7466;53.574;9.976;2022-09-20T01:49:37;18.27;;;5.10;;
14748;SDS011;7466;53.574;9.976;2022-09-20T01:52:24;21.70;;;4.97;;
14748;SDS011;7466;53.574;9.976;2022-09-20T01:55:24;17.60;;;5.30;;
14748;SDS011;7466;53.574;9.976;2022-09-20T02:01:23;17.53;;;4.93;;
14748;SDS011;7466;53.574;9.976;2022-09-20T02:04:16;16.67;;;4.60;;
14748;SDS011;7466;53.574;9.976;2022-09-20T02:07:01;19.50;;;5.53;;
14748;SDS011;7466;53.574;9.976;2022-09-20T02:09:58;18.23;;;5.13;;
14748;SDS011;7466;53.574;9.976;2022-09-20T02:12:43;17.53;;;5.30;;
14748;SDS011;7466;53.574;9.976;2022-09-20T02:15:22;15.60;;;4.90;;
14748;SDS011;7466;53.574;9.976;2022-09-20T02:18:08;22.40;;;5.43;;
14748;SDS011;7466;53.574;9.976;2022-09-20T02:20:49;14.53;;;4.97;;
14748;SDS011;7466;53.574;9.976;2022-09-20T02:23:27;16.17;;;5.23;;
14748;SDS011;7466;53.574;9.976;2022-09-20T02:26:04;15.63;;;5.17;;
14748;SDS011;7466;53.574;9.976;2022-09-20T02:28:46;18.57;;;5.20;;
14748;SDS011;7466;53.574;9.976;2022-09-20T02:31:48;13.23;;;5.40;;
14748;SDS011;7466;53.574;9.976;2022-09-20T02:34:45;17.03;;;5.30;;
14748;SDS011;7466;53.574;9.976;2022-09-20T02:37:32;18.97;;;5.27;;
14748;SDS011;7466;53.574;9.976;2022-09-20T02:40:13;18.30;;;6.13;;
14748;SDS011;7466;53.574;9.976;2022-09-20T02:42:48;14.60;;;5.10;;
14748;SDS011;7466;53.574;9.976;2022-09-20T02:45:25;17.40;;;5.53;;
14748;SDS011;7466;53.574;9.976;2022-09-20T02:47:57;15.47;;;5.77;;
14748;SDS011;7466;53.574;9.976;2022-09-20T02:50:33;12.70;;;5.40;;
14748;SDS011;7466;53.574;9.976;2022-09-20T02:53:10;15.47;;;4.97;;
14748;SDS011;7466;53.574;9.976;2022-09-20T02:55:49;14.40;;;4.90;;
14748;SDS011;7466;53.574;9.976;2022-09-20T02:58:32;9.87;;;4.53;;
14748;SDS011;7466;53.574;9.976;2022-09-20T03:01:10;13.70;;;5.00;;
14748;SDS011;7466;53.574;9.976;2022-09-20T03:03:49;15.60;;;5.00;;
14748;SDS011;7466;53.574;9.976;2022-09-20T03:06:32;17.43;;;5.30;;
14748;SDS011;7466;53.574;9.976;2022-09-20T03:09:10;15.53;;;4.70;;
14748;SDS011;7466;53.574;9.976;2022-09-20T03:11:42;17.10;;;4.87;;
14748;SDS011;7466;53.574;9.976;2022-09-20T03:14:18;12.77;;;5.17;;
14748;SDS011;7466;53.574;9.976;2022-09-20T03:16:53;16.57;;;4.90;;
14748;SDS011;7466;53.574;9.976;2022-09-20T03:22:25;17.13;;;5.27;;
14748;SDS011;7466;53.574;9.976;2022-09-20T03:25:03;7.50;;;4.20;;
14748;SDS011;7466;53.574;9.976;2022-09-20T03:27:47;12.10;;;4.17;;
14748;SDS011;7466;53.574;9.976;2022-09-20T03:30:24;12.97;;;4.77;;
14748;SDS011;7466;53.574;9.976;2022-09-20T03:33:00;14.30;;;4.63;;
14748;SDS011;7466;53.574;9.976;2022-09-20T03:35:42;11.00;;;5.30;;
14748;SDS011;7466;53.574;9.976;2022-09-20T03:38:27;12.30;;;4.60;;
14748;SDS011;7466;53.574;9.976;2022-09-20T03:44:09;8.90;;;4.67;;
14748;SDS011;7466;53.574;9.976;2022-09-20T03:46:52;13.93;;;4.60;;
14748;SDS011;7466;53.574;9.976;2022-09-20T03:49:37;9.67;;;4.50;;
14748;SDS011;7466;53.574;9.976;2022-09-20T03:52:51;10.63;;;4.50;;
14748;SDS011;7466;53.574;9.976;2022-09-20T03:58:31;12.03;;;5.00;;
14748;SDS011;7466;53.574;9.976;2022-09-20T04:01:15;9.13;;;4.37;;
14748;SDS011;7466;53.574;9.976;2022-09-20T04:03:59;10.33;;;4.53;;
14748;SDS011;7466;53.574;9.976;2022-09-20T04:06:36;12.50;;;4.50;;
14748;SDS011;7466;53.574;9.976;2022-09-20T04:12:24;5.17;;;4.00;;
14748;SDS011;7466;53.574;9.976;2022-09-20T04:14:56;7.07;;;3.80;;
14748;SDS011;7466;53.574;9.976;2022-09-20T04:17:35;8.23;;;4.23;;
14748;SDS011;7466;53.574;9.976;2022-09-20T04:20:12;5.33;;;3.80;;
14748;SDS011;7466;53.574;9.976;2022-09-20T04:22:45;9.00;;;4.30;;
14748;SDS011;7466;53.574;9.976;2022-09-20T04:25:16;9.73;;;4.30;;
14748;SDS011;7466;53.574;9.976;2022-09-20T04:27:49;5.13;;;4.23;;
14748;SDS011;7466;53.574;9.976;2022-09-20T04:30:20;9.00;;;4.57;;
14748;SDS011;7466;53.574;9.976;2022-09-20T04:32:49;9.13;;;4.57;;
14748;SDS011;7466;53.574;9.976;2022-09-20T04:35:28;11.07;;;4.33;;
14748;SDS011;7466;53.574;9.976;2022-09-20T04:38:19;8.27;;;3.83;;
14748;SDS011;7466;53.574;9.976;2022-09-20T04:40:55;6.13;;;4.03;;
14748;SDS011;7466;53.574;9.976;2022-09-20T04:43:57;6.77;;;3.93;;
14748;SDS011;7466;53.574;9.976;2022-09-20T04:47:00;4.57;;;3.90;;
14748;SDS011;7466;53.574;9.976;2022-09-20T04:53:37;11.30;;;3.83;;
14748;SDS011;7466;53.574;9.976;2022-09-20T04:56:27;8.77;;;4.20;;
14748;SDS011;7466;53.574;9.976;2022-09-20T04:59:08;7.10;;;3.73;;
14748;SDS011;7466;53.574;9.976;2022-09-20T05:05:03;11.67;;;4.20;;
14748;SDS011;7466;53.574;9.976;2022-09-20T05:08:05;8.73;;;3.93;;
14748;SDS011;7466;53.574;9.976;2022-09-20T05:13:56;8.20;;;4.07;;
14748;SDS011;7466;53.574;9.976;2022-09-20T05:16:51;7.80;;;3.70;;
14748;SDS011;7466;53.574;9.976;2022-09-20T05:19:30;12.27;;;3.73;;
14748;SDS011;7466;53.574;9.976;2022-09-20T05:22:08;13.47;;;4.10;;
14748;SDS011;7466;53.574;9.976;2022-09-20T05:25:00;6.93;;;4.00;;
14748;SDS011;7466;53.574;9.976;2022-09-20T05:27:40;8.37;;;4.07;;
14748;SDS011;7466;53.574;9.976;2022-09-20T05:30:24;10.23;;;4.13;;
14748;SDS011;7466;53.574;9.976;2022-09-20T05:33:01;9.80;;;3.73;;
14748;SDS011;7466;53.574;9.976;2022-09-20T05:35:37;8.57;;;3.87;;
14748;SDS011;7466;53.574;9.976;2022-09-20T05:38:12;10.93;;;4.17;;
14748;SDS011;7466;53.574;9.976;2022-09-20T05:40:54;9.10;;;3.83;;
14748;SDS011;7466;53.574;9.976;2022-09-20T05:43:35;6.97;;;3.67;;
14748;SDS011;7466;53.574;9.976;2022-09-20T05:46:16;11.97;;;3.50;;
14748;SDS011;7466;53.574;9.976;2022-09-20T05:48:52;6.70;;;3.70;;
14748;SDS011;7466;53.574;9.976;2022-09-20T05:51:35;8.20;;;3.93;;
14748;SDS011;7466;53.574;9.976;2022-09-20T05:54:27;9.03;;;3.93;;
14748;SDS011;7466;53.574;9.976;2022-09-20T05:57:10;8.27;;;3.40;;
14748;SDS011;7466;53.574;9.976;2022-09-20T05:59:53;6.97;;;3.20;;
14748;SDS011;7466;53.574;9.976;2022-09-20T06:02:31;10.27;;;3.30;;
14748;SDS011;7466;53.574;9.976;2022-09-20T06:05:07;7.60;;;3.63;;
14748;SDS011;7466;53.574;9.976;2022-09-20T06:10:54;9.63;;;3.40;;
14748;SDS011;7466;53.574;9.976;2022-09-20T06:13:48;7.70;;;3.50;;
14748;SDS011;7466;53.574;9.976;2022-09-20T06:16:27;12.00;;;3.80;;
14748;SDS011;7466;53.574;9.976;2022-09-20T06:19:12;7.67;;;3.37;;
14748;SDS011;7466;53.574;9.976;2022-09-20T06:21:47;7.87;;;3.30;;
14748;SDS011;7466;53.574;9.976;2022-09-20T06:24:19;10.77;;;3.20;;
14748;SDS011;7466;53.574;9.976;2022-09-20T06:26:56;7.93;;;3.10;;
14748;SDS011;7466;53.574;9.976;2022-09-20T06:29:28;14.13;;;3.50;;
14748;SDS011;7466;53.574;9.976;2022-09-20T06:31:58;8.00;;;3.37;;
14748;SDS011;7466;53.574;9.976;2022-09-20T06:34:26;6.37;;;3.07;;
14748;SDS011;7466;53.574;9.976;2022-09-20T06:36:56;11.93;;;3.33;;
14748;SDS011;7466;53.574;9.976;2022-09-20T06:39:48;6.93;;;2.73;;
14748;SDS011;7466;53.574;9.976;2022-09-20T06:42:39;9.87;;;2.90;;
14748;SDS011;7466;53.574;9.976;2022-09-20T06:45:08;11.40;;;3.10;;
14748;SDS011;7466;53.574;9.976;2022-09-20T06:47:35;6.80;;;2.50;;
14748;SDS011;7466;53.574;9.976;2022-09-20T06:50:04;10.37;;;2.93;;
14748;SDS011;7466;53.574;9.976;2022-09-20T06:52:31;7.73;;;2.30;;
14748;SDS011;7466;53.574;9.976;2022-09-20T06:55:00;9.60;;;2.63;;
14748;SDS011;7466;53.574;9.976;2022-09-20T06:57:32;10.47;;;3.20;;
14748;SDS011;7466;53.574;9.976;2022-09-20T07:00:02;8.60;;;2.70;;
14748;SDS011;7466;53.574;9.976;2022-09-20T07:02:32;9.23;;;2.77;;
14748;SDS011;7466;53.574;9.976;2022-09-20T07:04:59;11.10;;;3.07;;
14748;SDS011;7466;53.574;9.976;2022-09-20T07:07:27;11.07;;;2.30;;
14748;SDS011;7466;53.574;9.976;2022-09-20T07:09:54;15.80;;;3.53;;
14748;SDS011;7466;53.574;9.976;2022-09-20T07:12:27;7.80;;;2.20;;
14748;SDS011;7466;53.574;9.976;2022-09-20T07:14:57;11.13;;;2.43;;
14748;SDS011;7466;53.574;9.976;2022-09-20T07:17:24;7.37;;;2.30;;
14748;SDS011;7466;53.574;9.976;2022-09-20T07:19:51;11.00;;;2.43;;
14748;SDS011;7466;53.574;9.976;2022-09-20T07:22:18;10.90;;;2.17;;
14748;SDS011;7466;53.574;9.976;2022-09-20T07:24:46;7.33;;;2.30;;
14748;SDS011;7466;53.574;9.976;2022-09-20T07:27:13;15.13;;;3.00;;
14748;SDS011;7466;53.574;9.976;2022-09-20T07:29:40;6.03;;;2.13;;
14748;SDS011;7466;53.574;9.976;2022-09-20T07:32:07;10.47;;;2.30;;
14748;SDS011;7466;53.574;9.976;2022-09-20T07:34:34;14.37;;;2.57;;
14748;SDS011;7466;53.574;9.976;2022-09-20T07:37:01;9.50;;;2.40;;
14748;SDS011;7466;53.574;9.976;2022-09-20T07:39:28;10.17;;;2.50;;
14748;SDS011;7466;53.574;9.976;2022-09-20T07:41:56;10.17;;;2.50;;
14748;SDS011;7466;53.574;9.976;2022-09-20T07:44:23;9.40;;;1.90;;
14748;SDS011;7466;53.574;9.976;2022-09-20T07:46:52;11.67;;;2.40;;
14748;SDS011;7466;53.574;9.976;2022-09-20T07:49:20;8.17;;;2.03;;
14748;SDS011;7466;53.574;9.976;2022-09-20T07:51:47;6.70;;;1.90;;
14748;SDS011;7466;53.574;9.976;2022-09-20T07:54:16;12.03;;;2.07;;
14748;SDS011;7466;53.574;9.976;2022-09-20T07:56:43;14.47;;;2.40;;
14748;SDS011;7466;53.574;9.976;2022-09-20T07:59:12;9.07;;;2.10;;
14748;SDS011;7466;53.574;9.976;2022-09-20T08:01:40;11.53;;;2.20;;
14748;SDS011;7466;53.574;9.976;2022-09-20T08:04:07;10.57;;;2.20;;
14748;SDS011;7466;53.574;9.976;2022-09-20T08:06:35;12.33;;;2.40;;
14748;SDS011;7466;53.574;9.976;2022-09-20T08:09:03;7.53;;;2.00;;
14748;SDS011;7466;53.574;9.976;2022-09-20T08:11:29;6.13;;;2.30;;
14748;SDS011;7466;53.574;9.976;2022-09-20T08:13:57;13.20;;;2.70;;
14748;SDS011;7466;53.574;9.976;2022-09-20T08:16:27;8.27;;;2.20;;
14748;SDS011;7466;53.574;9.976;2022-09-20T08:18:56;6.93;;;2.10;;
14748;SDS011;7466;53.574;9.976;2022-09-20T08:21:24;9.73;;;2.20;;
14748;SDS011;7466;53.574;9.976;2022-09-20T08:23:52;7.93;;;2.03;;
14748;SDS011;7466;53.574;9.976;2022-09-20T08:26:19;10.77;;;2.10;;
14748;SDS011;7466;53.574;9.976;2022-09-20T08:28:50;7.97;;;2.00;;
14748;SDS011;7466;53.574;9.976;2022-09-20T08:31:19;9.60;;;2.00;;
14748;SDS011;7466;53.574;9.976;2022-09-20T08:33:49;11.27;;;2.10;;
14748;SDS011;7466;53.574;9.976;2022-09-20T08:36:19;9.93;;;2.10;;
14748;SDS011;7466;53.574;9.976;2022-09-20T08:38:48;7.30;;;2.07;;
14748;SDS011;7466;53.574;9.976;2022-09-20T08:41:16;7.57;;;1.87;;
14748;SDS011;7466;53.574;9.976;2022-09-20T08:43:47;11.70;;;2.33;;
14748;SDS011;7466;53.574;9.976;2022-09-20T08:46:17;10.80;;;2.27;;
14748;SDS011;7466;53.574;9.976;2022-09-20T08:48:50;6.17;;;1.70;;
14748;SDS011;7466;53.574;9.976;2022-09-20T08:51:17;13.67;;;1.93;;
14748;SDS011;7466;53.574;9.976;2022-09-20T08:53:46;8.53;;;2.17;;
14748;SDS011;7466;53.574;9.976;2022-09-20T08:56:15;10.00;;;2.50;;
14748;SDS011;7466;53.574;9.976;2022-09-20T08:58:42;5.93;;;2.07;;
14748;SDS011;7466;53.574;9.976;2022-09-20T09:01:10;10.53;;;2.10;;
14748;SDS011;7466;53.574;9.976;2022-09-20T09:03:42;8.03;;;2.23;;
14748;SDS011;7466;53.574;9.976;2022-09-20T09:06:10;9.77;;;2.30;;
14748;SDS011;7466;53.574;9.976;2022-09-20T09:08:40;9.53;;;2.20;;
14748;SDS011;7466;53.574;9.976;2022-09-20T09:11:11;7.90;;;1.73;;
14748;SDS011;7466;53.574;9.976;2022-09-20T09:13:46;4.73;;;1.97;;
14748;SDS011;7466;53.574;9.976;2022-09-20T09:16:18;7.60;;;2.10;;
14748;SDS011;7466;53.574;9.976;2022-09-20T09:18:46;6.47;;;1.93;;
14748;SDS011;7466;53.574;9.976;2022-09-20T09:21:17;8.77;;;2.20;;
14748;SDS011;7466;53.574;9.976;2022-09-20T09:23:48;10.63;;;2.17;;
14748;SDS011;7466;53.574;9.976;2022-09-20T09:26:19;7.53;;;2.30;;
14748;SDS011;7466;53.574;9.976;2022-09-20T09:31:40;10.70;;;2.23;;
14748;SDS011;7466;53.574;9.976;2022-09-20T09:34:21;5.17;;;1.50;;
14748;SDS011;7466;53.574;9.976;2022-09-20T09:36:51;8.00;;;1.87;;
14748;SDS011;7466;53.574;9.976;2022-09-20T09:39:22;6.97;;;1.90;;
14748;SDS011;7466;53.574;9.976;2022-09-20T09:41:50;6.23;;;2.30;;
14748;SDS011;7466;53.574;9.976;2022-09-20T09:44:18;9.57;;;2.60;;
14748;SDS011;7466;53.574;9.976;2022-09-20T09:46:47;6.00;;;2.20;;
14748;SDS011;7466;53.574;9.976;2022-09-20T09:49:16;5.30;;;1.87;;
14748;SDS011;7466;53.574;9.976;2022-09-20T09:52:00;5.53;;;1.90;;
14748;SDS011;7466;53.574;9.976;2022-09-20T09:54:30;3.23;;;1.70;;
14748;SDS011;7466;53.574;9.976;2022-09-20T09:57:03;5.70;;;2.10;;
14748;SDS011;7466;53.574;9.976;2022-09-20T09:59:50;5.27;;;1.70;;
14748;SDS011;7466;53.574;9.976;2022-09-20T10:05:15;5.15;;;2.05;;
14748;SDS011;7466;53.574;9.976;2022-09-20T10:07:48;6.72;;;2.08;;
14748;SDS011;7466;53.574;9.976;2022-09-20T10:10:25;4.27;;;1.60;;
14748;SDS011;7466;53.574;9.976;2022-09-20T10:13:06;6.67;;;1.93;;
14748;SDS011;7466;53.574;9.976;2022-09-20T10:15:40;10.53;;;1.90;;
14748;SDS011;7466;53.574;9.976;2022-09-20T10:18:21;5.80;;;1.73;;
14748;SDS011;7466;53.574;9.976;2022-09-20T10:20:59;4.93;;;1.60;;
14748;SDS011;7466;53.574;9.976;2022-09-20T10:23:39;5.73;;;1.87;;
14748;SDS011;7466;53.574;9.976;2022-09-20T10:26:18;7.33;;;2.00;;
14748;SDS011;7466;53.574;9.976;2022-09-20T10:29:00;6.27;;;1.83;;
14748;SDS011;7466;53.574;9.976;2022-09-20T10:31:40;7.18;;;1.80;;
14748;SDS011;7466;53.574;9.976;2022-09-20T10:37:23;4.95;;;1.60;;
14748;SDS011;7466;53.574;9.976;2022-09-20T10:40:04;5.70;;;1.70;;
14748;SDS011;7466;53.574;9.976;2022-09-20T10:42:44;6.93;;;1.80;;
14748;SDS011;7466;53.574;9.976;2022-09-20T10:45:31;4.20;;;1.87;;
14748;SDS011;7466;53.574;9.976;2022-09-20T10:48:04;4.10;;;1.70;;
14748;SDS011;7466;53.574;9.976;2022-09-20T10:50:38;8.23;;;1.93;;
14748;SDS011;7466;53.574;9.976;2022-09-20T10:53:17;5.70;;;1.80;;
14748;SDS011;7466;53.574;9.976;2022-09-20T10:55:59;7.97;;;1.90;;
14748;SDS011;7466;53.574;9.976;2022-09-20T10:58:37;8.07;;;1.80;;
14748;SDS011;7466;53.574;9.976;2022-09-20T11:01:26;3.90;;;1.60;;
14748;SDS011;7466;53.574;9.976;2022-09-20T11:04:02;3.10;;;1.80;;
14748;SDS011;7466;53.574;9.976;2022-09-20T11:06:48;3.92;;;1.70;;
14748;SDS011;7466;53.574;9.976;2022-09-20T11:09:28;2.67;;;1.63;;
14748;SDS011;7466;53.574;9.976;2022-09-20T11:12:02;5.30;;;1.75;;
14748;SDS011;7466;53.574;9.976;2022-09-20T11:14:36;5.33;;;1.90;;
14748;SDS011;7466;53.574;9.976;2022-09-20T11:17:09;5.13;;;1.60;;
14748;SDS011;7466;53.574;9.976;2022-09-20T11:19:43;5.32;;;1.80;;
14748;SDS011;7466;53.574;9.976;2022-09-20T11:22:17;6.03;;;1.90;;
14748;SDS011;7466;53.574;9.976;2022-09-20T11:25:03;7.13;;;1.80;;
14748;SDS011;7466;53.574;9.976;2022-09-20T11:27:40;8.63;;;1.92;;
14748;SDS011;7466;53.574;9.976;2022-09-20T11:30:13;6.13;;;1.70;;
14748;SDS011;7466;53.574;9.976;2022-09-20T11:32:45;5.75;;;1.83;;
14748;SDS011;7466;53.574;9.976;2022-09-20T11:35:19;6.35;;;1.92;;
14748;SDS011;7466;53.574;9.976;2022-09-20T11:37:56;6.20;;;1.92;;
14748;SDS011;7466;53.574;9.976;2022-09-20T11:40:31;8.23;;;2.37;;
14748;SDS011;7466;53.574;9.976;2022-09-20T11:43:04;5.00;;;1.97;;
14748;SDS011;7466;53.574;9.976;2022-09-20T11:45:33;5.97;;;1.80;;
14748;SDS011;7466;53.574;9.976;2022-09-20T11:48:02;7.13;;;2.17;;
14748;SDS011;7466;53.574;9.976;2022-09-20T11:53:46;4.82;;;1.60;;
14748;SDS011;7466;53.574;9.976;2022-09-20T11:56:30;7.63;;;1.50;;
14748;SDS011;7466;53.574;9.976;2022-09-20T11:59:01;4.28;;;1.70;;
14748;SDS011;7466;53.574;9.976;2022-09-20T12:01:34;5.90;;;1.80;;
14748;SDS011;7466;53.574;9.976;2022-09-20T12:04:04;4.28;;;1.90;;
14748;SDS011;7466;53.574;9.976;2022-09-20T12:06:37;4.18;;;1.92;;
14748;SDS011;7466;53.574;9.976;2022-09-20T12:09:21;2.55;;;1.52;;
14748;SDS011;7466;53.574;9.976;2022-09-20T12:11:50;4.93;;;1.85;;
14748;SDS011;7466;53.574;9.976;2022-09-20T12:14:24;5.80;;;1.60;;
14748;SDS011;7466;53.574;9.976;2022-09-20T12:16:53;4.85;;;1.73;;
14748;SDS011;7466;53.574;9.976;2022-09-20T12:22:25;6.30;;;1.50;;
14748;SDS011;7466;53.574;9.976;2022-09-20T12:28:14;3.75;;;1.27;;
14748;SDS011;7466;53.574;9.976;2022-09-20T12:34:03;5.63;;;1.80;;
14748;SDS011;7466;53.574;9.976;2022-09-20T12:39:49;3.65;;;1.48;;
14748;SDS011;7466;53.574;9.976;2022-09-20T12:42:25;4.10;;;1.60;;
14748;SDS011;7466;53.574;9.976;2022-09-20T12:44:56;4.05;;;1.75;;
14748;SDS011;7466;53.574;9.976;2022-09-20T12:47:26;4.47;;;1.70;;
14748;SDS011;7466;53.574;9.976;2022-09-20T12:49:57;4.93;;;1.90;;
14748;SDS011;7466;53.574;9.976;2022-09-20T12:52:50;4.82;;;1.70;;
14748;SDS011;7466;53.574;9.976;2022-09-20T12:55:29;4.57;;;1.70;;
14748;SDS011;7466;53.574;9.976;2022-09-20T12:58:05;6.47;;;1.50;;
14748;SDS011;7466;53.574;9.976;2022-09-20T13:00:48;3.60;;;1.37;;
14748;SDS011;7466;53.574;9.976;2022-09-20T13:03:22;3.97;;;1.35;;
14748;SDS011;7466;53.574;9.976;2022-09-20T13:08:51;4.97;;;1.23;;
14748;SDS011;7466;53.574;9.976;2022-09-20T13:11:29;3.90;;;1.33;;
14748;SDS011;7466;53.574;9.976;2022-09-20T13:14:05;3.88;;;1.60;;
14748;SDS011;7466;53.574;9.976;2022-09-20T13:16:38;3.58;;;1.67;;
14748;SDS011;7466;53.574;9.976;2022-09-20T13:19:15;3.95;;;1.40;;
14748;SDS011;7466;53.574;9.976;2022-09-20T13:21:51;3.85;;;1.30;;
14748;SDS011;7466;53.574;9.976;2022-09-20T13:24:22;2.75;;;1.55;;
14748;SDS011;7466;53.574;9.976;2022-09-20T13:26:51;2.90;;;1.45;;
14748;SDS011;7466;53.574;9.976;2022-09-20T13:29:21;4.13;;;1.75;;
14748;SDS011;7466;53.574;9.976;2022-09-20T13:31:55;6.88;;;1.85;;
14748;SDS011;7466;53.574;9.976;2022-09-20T13:34:39;4.78;;;1.75;;
14748;SDS011;7466;53.574;9.976;2022-09-20T13:37:16;3.70;;;1.77;;
14748;SDS011;7466;53.574;9.976;2022-09-20T13:39:45;4.35;;;1.50;;
14748;SDS011;7466;53.574;9.976;2022-09-20T13:42:17;6.07;;;1.60;;
14748;SDS011;7466;53.574;9.976;2022-09-20T13:44:45;4.03;;;1.73;;
14748;SDS011;7466;53.574;9.976;2022-09-20T13:47:22;2.97;;;1.40;;
14748;SDS011;7466;53.574;9.976;2022-09-20T13:49:51;3.53;;;1.80;;
14748;SDS011;7466;53.574;9.976;2022-09-20T13:52:23;7.60;;;1.77;;
14748;SDS011;7466;53.574;9.976;2022-09-20T13:54:51;4.73;;;1.67;;
14748;SDS011;7466;53.574;9.976;2022-09-20T13:57:20;4.63;;;1.80;;
14748;SDS011;7466;53.574;9.976;2022-09-20T13:59:48;4.07;;;1.70;;
14748;SDS011;7466;53.574;9.976;2022-09-20T14:02:18;6.13;;;1.50;;
14748;SDS011;7466;53.574;9.976;2022-09-20T14:04:47;3.70;;;1.47;;
14748;SDS011;7466;53.574;9.976;2022-09-20T14:07:16;2.20;;;1.37;;
14748;SDS011;7466;53.574;9.976;2022-09-20T14:09:52;6.30;;;1.40;;
14748;SDS011;7466;53.574;9.976;2022-09-20T14:12:20;4.13;;;1.40;;
14748;SDS011;7466;53.574;9.976;2022-09-20T14:14:48;2.63;;;1.40;;
14748;SDS011;7466;53.574;9.976;2022-09-20T14:17:16;3.07;;;1.30;;
14748;SDS011;7466;53.574;9.976;2022-09-20T14:19:46;3.33;;;1.30;;
14748;SDS011;7466;53.574;9.976;2022-09-20T14:22:15;2.77;;;1.43;;
14748;SDS011;7466;53.574;9.976;2022-09-20T14:24:56;4.40;;;1.20;;
14748;SDS011;7466;53.574;9.976;2022-09-20T14:27:25;7.33;;;1.30;;
14748;SDS011;7466;53.574;9.976;2022-09-20T14:29:55;5.17;;;1.50;;
14748;SDS011;7466;53.574;9.976;2022-09-20T14:32:36;3.20;;;1.57;;
14748;SDS011;7466;53.574;9.976;2022-09-20T14:35:06;4.00;;;1.37;;
14748;SDS011;7466;53.574;9.976;2022-09-20T14:37:41;2.57;;;1.13;;
14748;SDS011;7466;53.574;9.976;2022-09-20T14:40:18;3.90;;;1.10;;
14748;SDS011;7466;53.574;9.976;2022-09-20T14:42:48;4.97;;;1.60;;
14748;SDS011;7466;53.574;9.976;2022-09-20T14:45:20;3.87;;;1.00;;
14748;SDS011;7466;53.574;9.976;2022-09-20T14:47:51;4.80;;;1.33;;
14748;SDS011;7466;53.574;9.976;2022-09-20T14:50:24;4.10;;;1.67;;
14748;SDS011;7466;53.574;9.976;2022-09-20T14:53:04;4.23;;;1.40;;
14748;SDS011;7466;53.574;9.976;2022-09-20T14:55:54;3.83;;;1.30;;
14748;SDS011;7466;53.574;9.976;2022-09-20T14:58:23;4.10;;;1.00;;
14748;SDS011;7466;53.574;9.976;2022-09-20T15:00:52;3.87;;;1.13;;
14748;SDS011;7466;53.574;9.976;2022-09-20T15:03:23;3.40;;;1.30;;
14748;SDS011;7466;53.574;9.976;2022-09-20T15:05:52;3.30;;;1.73;;
14748;SDS011;7466;53.574;9.976;2022-09-20T15:08:19;7.33;;;1.50;;
14748;SDS011;7466;53.574;9.976;2022-09-20T15:10:46;4.63;;;1.63;;
14748;SDS011;7466;53.574;9.976;2022-09-20T15:13:20;4.37;;;1.43;;
14748;SDS011;7466;53.574;9.976;2022-09-20T15:15:49;3.70;;;1.33;;
14748;SDS011;7466;53.574;9.976;2022-09-20T15:18:18;5.33;;;1.50;;
14748;SDS011;7466;53.574;9.976;2022-09-20T15:20:52;5.10;;;1.33;;
14748;SDS011;7466;53.574;9.976;2022-09-20T15:23:20;3.63;;;1.30;;
14748;SDS011;7466;53.574;9.976;2022-09-20T15:25:48;6.60;;;1.60;;
14748;SDS011;7466;53.574;9.976;2022-09-20T15:28:15;4.23;;;1.17;;
14748;SDS011;7466;53.574;9.976;2022-09-20T15:30:44;2.40;;;1.27;;
14748;SDS011;7466;53.574;9.976;2022-09-20T15:33:14;3.63;;;1.20;;
14748;SDS011;7466;53.574;9.976;2022-09-20T15:35:42;2.47;;;1.07;;
14748;SDS011;7466;53.574;9.976;2022-09-20T15:38:13;3.63;;;0.97;;
14748;SDS011;7466;53.574;9.976;2022-09-20T15:40:58;3.13;;;0.90;;
14748;SDS011;7466;53.574;9.976;2022-09-20T15:43:25;5.20;;;1.40;;
14748;SDS011;7466;53.574;9.976;2022-09-20T15:45:59;2.07;;;0.90;;
14748;SDS011;7466;53.574;9.976;2022-09-20T15:48:30;2.37;;;0.90;;
14748;SDS011;7466;53.574;9.976;2022-09-20T15:51:04;5.57;;;1.23;;
14748;SDS011;7466;53.574;9.976;2022-09-20T15:53:33;5.70;;;1.20;;
14748;SDS011;7466;53.574;9.976;2022-09-20T15:56:03;5.63;;;1.23;;
14748;SDS011;7466;53.574;9.976;2022-09-20T15:58:42;4.60;;;1.23;;
14748;SDS011;7466;53.574;9.976;2022-09-20T16:01:12;3.37;;;1.43;;
14748;SDS011;7466;53.574;9.976;2022-09-20T16:03:40;7.43;;;1.70;;
14748;SDS011;7466;53.574;9.976;2022-09-20T16:06:08;5.77;;;1.37;;
14748;SDS011;7466;53.574;9.976;2022-09-20T16:08:37;3.37;;;1.37;;
14748;SDS011;7466;53.574;9.976;2022-09-20T16:11:05;5.17;;;1.53;;
14748;SDS011;7466;53.574;9.976;2022-09-20T16:13:40;3.23;;;1.40;;
14748;SDS011;7466;53.574;9.976;2022-09-20T16:16:07;2.20;;;1.27;;
14748;SDS011;7466;53.574;9.976;2022-09-20T16:18:39;2.90;;;1.37;;
14748;SDS011;7466;53.574;9.976;2022-09-20T16:21:24;5.53;;;1.53;;
14748;SDS011;7466;53.574;9.976;2022-09-20T16:23:51;4.23;;;1.20;;
14748;SDS011;7466;53.574;9.976;2022-09-20T16:26:20;4.20;;;1.20;;
14748;SDS011;7466;53.574;9.976;2022-09-20T16:28:48;4.03;;;1.33;;
14748;SDS011;7466;53.574;9.976;2022-09-20T16:31:27;2.80;;;1.40;;
14748;SDS011;7466;53.574;9.976;2022-09-20T16:34:05;5.10;;;1.40;;
14748;SDS011;7466;53.574;9.976;2022-09-20T16:36:36;3.10;;;1.20;;